createdAt,value
2016-05-11T00:00:36.606Z,1010.6
2016-05-11T00:01:36.623Z,1010.6
2016-05-11T00:02:36.658Z,1010.54
2016-05-11T00:03:49.411Z,1010.6
2016-05-11T00:04:36.694Z,1010.62
2016-05-11T00:06:02.384Z,1010.6
2016-05-11T00:06:39.762Z,1010.59
2016-05-11T00:07:36.764Z,1010.61
2016-05-11T00:09:36.802Z,1010.61
2016-05-11T00:10:36.819Z,1010.62
2016-05-11T00:11:36.855Z,1010.57
2016-05-11T00:12:49.591Z,1010.62
2016-05-11T00:13:49.624Z,1010.62
2016-05-11T00:14:56.113Z,1010.62
2016-05-11T00:15:56.146Z,1010.62
2016-05-11T00:16:36.946Z,1010.57
2016-05-11T00:17:36.963Z,1010.61
2016-05-11T00:18:36.998Z,1010.6
2016-05-11T00:19:37.001Z,1010.61
2016-05-11T00:20:37.034Z,1010.56
2016-05-11T00:21:37.052Z,1010.57
2016-05-11T00:22:46.665Z,1010.58
2016-05-11T00:23:46.682Z,1010.54
2016-05-11T00:24:46.702Z,1010.52
2016-05-11T00:25:46.720Z,1010.52
2016-05-11T00:26:46.754Z,1010.53
2016-05-11T00:27:46.757Z,1010.53
2016-05-11T00:28:46.790Z,1010.51
2016-05-11T00:30:02.121Z,1010.5
2016-05-11T00:31:27.814Z,1010.47
2016-05-11T00:32:11.892Z,1010.49
2016-05-11T00:33:11.911Z,1010.45
2016-05-11T00:34:11.945Z,1010.45
2016-05-11T00:35:31.169Z,1010.47
2016-05-11T00:36:37.672Z,1010.49
2016-05-11T00:37:12.015Z,1010.45
2016-05-11T00:38:12.017Z,1010.44
2016-05-11T00:39:12.036Z,1010.42
2016-05-11T00:40:12.070Z,1010.4
2016-05-11T00:41:24.872Z,1010.4
2016-05-11T00:42:12.106Z,1010.4
2016-05-11T00:43:12.124Z,1010.42
2016-05-11T00:44:24.880Z,1010.39
2016-05-11T00:45:12.177Z,1010.41
2016-05-11T00:46:12.180Z,1010.42
2016-05-11T00:47:15.183Z,1010.4
2016-05-11T00:48:15.201Z,1010.39
2016-05-11T00:49:15.219Z,1010.41
2016-05-11T00:50:15.253Z,1010.42
2016-05-11T00:51:15.271Z,1010.38
2016-05-11T00:52:15.290Z,1010.39
2016-05-11T00:54:30.563Z,1010.41
2016-05-11T00:55:30.566Z,1010.39
2016-05-11T00:56:33.787Z,1010.41
2016-05-11T00:57:33.821Z,1010.39
2016-05-11T00:58:43.449Z,1010.4
2016-05-11T00:59:43.483Z,1010.38
2016-05-11T01:00:43.486Z,1010.39
2016-05-11T01:01:43.519Z,1010.37
2016-05-11T01:02:43.522Z,1010.37
2016-05-11T01:03:43.556Z,1010.38
2016-05-11T01:04:43.575Z,1010.37
2016-05-11T01:05:43.578Z,1010.34
2016-05-11T01:07:09.283Z,1010.37
2016-05-11T01:07:43.630Z,1010.34
2016-05-11T01:10:02.869Z,1010.4
2016-05-11T01:10:43.700Z,1010.35
2016-05-11T01:12:58.940Z,1010.34
2016-05-11T01:13:58.974Z,1010.32
2016-05-11T01:14:58.992Z,1010.35
2016-05-11T01:15:59.010Z,1010.33
2016-05-11T01:16:59.030Z,1010.3
2016-05-11T01:17:59.062Z,1010.28
2016-05-11T01:19:18.284Z,1010.31
2016-05-11T01:19:59.099Z,1010.33
2016-05-11T01:20:59.118Z,1010.32
2016-05-11T01:22:18.339Z,1010.32
2016-05-11T01:22:59.154Z,1010.32
2016-05-11T01:24:59.206Z,1010.27
2016-05-11T01:25:59.225Z,1010.27
2016-05-11T01:27:14.477Z,1010.24
2016-05-11T01:28:14.496Z,1010.25
2016-05-11T01:29:14.515Z,1010.24
2016-05-11T01:30:14.735Z,1010.25
2016-05-11T01:31:14.550Z,1010.26
2016-05-11T01:32:14.569Z,1010.25
2016-05-11T01:33:14.604Z,1010.23
2016-05-11T01:34:14.621Z,1010.24
2016-05-11T01:35:14.640Z,1010.22
2016-05-11T01:36:14.658Z,1010.21
2016-05-11T01:37:14.661Z,1010.14
2016-05-11T01:38:14.710Z,1010.15
2016-05-11T01:39:27.450Z,1010.14
2016-05-11T01:40:14.731Z,1010.1
2016-05-11T01:42:14.784Z,1010.12
2016-05-11T01:43:14.802Z,1010.12
2016-05-11T01:44:14.820Z,1010.11
2016-05-11T01:45:24.464Z,1010.05
2016-05-11T01:46:24.497Z,1010.06
2016-05-11T01:47:24.499Z,1010.06
2016-05-11T01:48:24.518Z,1010.03
2016-05-11T01:49:24.553Z,1010.06
2016-05-11T01:50:24.571Z,1010.01
2016-05-11T01:51:24.589Z,1010.01
2016-05-11T01:52:24.607Z,1010.02
2016-05-11T01:53:24.626Z,1010
2016-05-11T01:54:24.644Z,1010.01
2016-05-11T01:55:24.677Z,1010.01
2016-05-11T01:56:24.712Z,1010
2016-05-11T01:57:24.715Z,1010.01
2016-05-11T01:58:24.827Z,1010.02
2016-05-11T01:59:24.735Z,1009.97
2016-05-11T02:00:24.770Z,1009.94
2016-05-11T02:01:24.803Z,1009.96
2016-05-11T02:02:37.558Z,1010.01
2016-05-11T02:03:24.823Z,1009.97
2016-05-11T02:04:24.859Z,1009.93
2016-05-11T02:05:37.614Z,1009.97
2016-05-11T02:06:24.895Z,1009.93
2016-05-11T02:07:24.913Z,1009.93
2016-05-11T02:08:34.528Z,1009.94
2016-05-11T02:09:34.546Z,1009.94
2016-05-11T02:10:34.580Z,1009.95
2016-05-11T02:12:49.820Z,1009.93
2016-05-11T02:13:49.838Z,1009.93
2016-05-11T02:14:49.872Z,1009.93
2016-05-11T02:16:02.625Z,1009.9
2016-05-11T02:16:49.909Z,1009.92
2016-05-11T02:17:49.927Z,1009.93
2016-05-11T02:18:49.961Z,1009.92
2016-05-11T02:19:49.964Z,1009.96
2016-05-11T02:21:02.732Z,1009.95
2016-05-11T02:21:50.032Z,1009.95
2016-05-11T02:22:50.035Z,1009.98
2016-05-11T02:23:50.052Z,1009.98
2016-05-11T02:25:18.899Z,1009.98
2016-05-11T02:26:25.385Z,1009.97
2016-05-11T02:27:09.342Z,1009.96
2016-05-11T02:28:35.035Z,1010
2016-05-11T02:29:18.973Z,1010.02
2016-05-11T02:30:19.006Z,1010.02
2016-05-11T02:31:19.024Z,1010.03
2016-05-11T02:32:19.027Z,1010.02
2016-05-11T02:33:19.062Z,1010.02
2016-05-11T02:34:31.817Z,1009.99
2016-05-11T02:35:19.098Z,1009.94
2016-05-11T02:36:19.116Z,1009.96
2016-05-11T02:37:31.872Z,1009.93
2016-05-11T02:38:19.153Z,1009.9
2016-05-11T02:39:44.862Z,1009.92
2016-05-11T02:40:31.942Z,1009.94
2016-05-11T02:41:19.208Z,1009.99
2016-05-11T02:42:19.226Z,1009.97
2016-05-11T02:43:19.260Z,1009.97
2016-05-11T02:44:19.278Z,1009.98
2016-05-11T02:45:19.296Z,1010.01
2016-05-11T02:46:19.315Z,1009.99
2016-05-11T02:47:19.333Z,1009.99
2016-05-11T02:48:19.352Z,1010
2016-05-11T02:49:19.386Z,1010.03
2016-05-11T02:50:19.388Z,1010.04
2016-05-11T02:51:32.160Z,1010.04
2016-05-11T02:52:19.441Z,1010.06
2016-05-11T02:53:45.133Z,1010.04
2016-05-11T02:54:19.493Z,1010.04
2016-05-11T02:55:19.496Z,1009.99
2016-05-11T02:56:37.626Z,1010.01
2016-05-11T02:57:37.659Z,1010.02
2016-05-11T02:58:37.663Z,1010.02
2016-05-11T02:59:37.682Z,1010.03
2016-05-11T03:00:56.902Z,1010.01
2016-05-11T03:01:37.732Z,1010.01
2016-05-11T03:02:37.735Z,1010.01
2016-05-11T03:03:37.769Z,1009.97
2016-05-11T03:04:37.787Z,1009.96
2016-05-11T03:05:37.807Z,1009.97
2016-05-11T03:06:37.825Z,1009.98
2016-05-11T03:07:37.843Z,1009.98
2016-05-11T03:08:37.861Z,1010.01
2016-05-11T03:09:37.879Z,1009.98
2016-05-11T03:10:37.897Z,1009.96
2016-05-11T03:11:57.134Z,1009.96
2016-05-11T03:12:37.950Z,1009.95
2016-05-11T03:13:37.969Z,1009.97
2016-05-11T03:15:00.361Z,1009.92
2016-05-11T03:15:41.161Z,1009.95
2016-05-11T03:16:41.180Z,1009.99
2016-05-11T03:17:41.198Z,1009.99
2016-05-11T03:18:41.216Z,1010.01
2016-05-11T03:19:41.250Z,1009.98
2016-05-11T03:20:41.283Z,1010.01
2016-05-11T03:21:41.286Z,1010
2016-05-11T03:22:41.305Z,1009.95
2016-05-11T03:23:44.354Z,1009.97
2016-05-11T03:24:54.077Z,1009.95
2016-05-11T03:25:41.360Z,1009.99
2016-05-11T03:26:41.379Z,1009.98
2016-05-11T03:27:42.803Z,1009.99
2016-05-11T03:28:41.415Z,1010.01
2016-05-11T03:29:54.182Z,1010.01
2016-05-11T03:30:41.474Z,1010
2016-05-11T03:31:41.531Z,1009.97
2016-05-11T03:32:54.323Z,1010.01
2016-05-11T03:33:41.648Z,1009.93
2016-05-11T03:34:41.705Z,1009.93
2016-05-11T03:35:41.759Z,1009.93
2016-05-11T03:37:01.010Z,1009.88
2016-05-11T03:37:41.824Z,1009.93
2016-05-11T03:39:41.905Z,1009.9
2016-05-11T03:40:41.920Z,1009.91
2016-05-11T03:41:41.959Z,1009.9
2016-05-11T03:43:01.169Z,1009.9
2016-05-11T03:44:07.677Z,1009.91
2016-05-11T03:45:07.779Z,1009.94
2016-05-11T03:45:42.052Z,1009.93
2016-05-11T03:46:42.072Z,1009.95
2016-05-11T03:47:43.514Z,1009.93
2016-05-11T03:48:42.112Z,1009.91
2016-05-11T03:49:42.132Z,1009.92
2016-05-11T03:50:42.153Z,1009.93
2016-05-11T03:51:42.170Z,1009.92
2016-05-11T03:52:42.206Z,1009.91
2016-05-11T03:53:43.631Z,1009.94
2016-05-11T03:54:46.774Z,1009.95
2016-05-11T03:55:46.793Z,1009.94
2016-05-11T03:56:59.561Z,1009.9
2016-05-11T03:57:59.564Z,1009.87
2016-05-11T03:58:46.849Z,1009.84
2016-05-11T04:00:06.602Z,1009.89
2016-05-11T04:00:46.887Z,1009.86
2016-05-11T04:01:46.920Z,1009.9
2016-05-11T04:02:46.954Z,1009.91
2016-05-11T04:03:46.957Z,1009.89
2016-05-11T04:05:06.178Z,1009.9
2016-05-11T04:05:48.415Z,1009.9
2016-05-11T04:07:53.297Z,1009.93
2016-05-11T04:08:47.064Z,1009.94
2016-05-11T04:09:47.098Z,1009.99
2016-05-11T04:10:47.100Z,1010
2016-05-11T04:11:47.118Z,1010.01
2016-05-11T04:13:12.809Z,1010.01
2016-05-11T04:13:47.156Z,1010.04
2016-05-11T04:14:51.846Z,1010
2016-05-11T04:15:52.286Z,1009.99
2016-05-11T04:16:51.882Z,1010.01
2016-05-11T04:17:51.901Z,1009.99
2016-05-11T04:19:11.122Z,1010.02
2016-05-11T04:19:51.937Z,1009.97
2016-05-11T04:22:04.724Z,1009.99
2016-05-11T04:22:52.007Z,1010.01
2016-05-11T04:23:52.026Z,1010
2016-05-11T04:24:52.029Z,1010.02
2016-05-11T04:26:17.720Z,1010.03
2016-05-11T04:27:01.535Z,1010.06
2016-05-11T04:28:01.553Z,1010.06
2016-05-11T04:29:01.571Z,1010.05
2016-05-11T04:30:01.605Z,1010.01
2016-05-11T04:31:01.608Z,1010.07
2016-05-11T04:32:14.360Z,1010.04
2016-05-11T04:33:01.660Z,1010.02
2016-05-11T04:34:01.678Z,1010.05
2016-05-11T04:35:14.414Z,1010.02
2016-05-11T04:36:01.699Z,1010.03
2016-05-11T04:37:01.733Z,1010.03
2016-05-11T04:38:01.751Z,1010.03
2016-05-11T04:39:01.770Z,1010.05
2016-05-11T04:40:08.053Z,1010.04
2016-05-11T04:41:14.556Z,1010
2016-05-11T04:42:01.825Z,1010.02
2016-05-11T04:43:21.046Z,1010.03
2016-05-11T04:44:27.564Z,1010.02
2016-05-11T04:45:01.896Z,1010.06
2016-05-11T04:47:16.979Z,1010.09
2016-05-11T04:48:16.997Z,1010.07
2016-05-11T04:49:36.221Z,1010.14
2016-05-11T04:50:23.346Z,1010.11
2016-05-11T04:51:42.585Z,1010.1
2016-05-11T04:52:35.760Z,1010.14
2016-05-11T04:53:35.779Z,1010.18
2016-05-11T04:55:45.582Z,1010.19
2016-05-11T04:56:45.598Z,1010.24
2016-05-11T04:58:07.649Z,1010.31
2016-05-11T04:59:07.667Z,1010.36
2016-05-11T05:00:20.451Z,1010.35
2016-05-11T05:01:07.734Z,1010.4
2016-05-11T05:02:26.942Z,1010.39
2016-05-11T05:03:07.756Z,1010.41
2016-05-11T05:05:28.981Z,1010.35
2016-05-11T05:06:28.998Z,1010.36
2016-05-11T05:07:48.222Z,1010.34
2016-05-11T05:08:30.472Z,1010.35
2016-05-11T05:09:29.053Z,1010.38
2016-05-11T05:10:44.137Z,1010.41
2016-05-11T05:11:44.171Z,1010.45
2016-05-11T05:12:44.189Z,1010.45
2016-05-11T05:13:56.942Z,1010.46
2016-05-11T05:14:44.351Z,1010.48
2016-05-11T05:16:03.494Z,1010.5
2016-05-11T05:16:44.278Z,1010.52
2016-05-11T05:17:44.296Z,1010.56
2016-05-11T05:18:44.862Z,1010.52
2016-05-11T05:19:44.349Z,1010.54
2016-05-11T05:20:54.007Z,1010.57
2016-05-11T05:21:54.026Z,1010.51
2016-05-11T05:22:55.466Z,1010.53
2016-05-11T05:24:06.843Z,1010.52
2016-05-11T05:25:13.300Z,1010.5
2016-05-11T05:26:16.333Z,1010.51
2016-05-11T05:27:22.649Z,1010.46
2016-05-11T05:28:16.401Z,1010.49
2016-05-11T05:29:16.420Z,1010.48
2016-05-11T05:30:29.187Z,1010.53
2016-05-11T05:31:17.895Z,1010.5
2016-05-11T05:32:16.506Z,1010.55
2016-05-11T05:33:19.681Z,1010.55
2016-05-11T05:34:19.699Z,1010.55
2016-05-11T05:35:22.764Z,1010.57
2016-05-11T05:36:19.751Z,1010.57
2016-05-11T05:37:35.006Z,1010.6
2016-05-11T05:38:35.041Z,1010.6
2016-05-11T05:39:35.059Z,1010.6
2016-05-11T05:40:47.811Z,1010.61
2016-05-11T05:41:35.127Z,1010.6
2016-05-11T05:43:00.817Z,1010.6
2016-05-11T05:43:47.663Z,1010.6
2016-05-11T05:45:06.900Z,1010.59
2016-05-11T05:46:22.153Z,1010.6
2016-05-11T05:47:22.171Z,1010.61
2016-05-11T05:48:22.205Z,1010.61
2016-05-11T05:49:22.239Z,1010.56
2016-05-11T05:50:22.274Z,1010.61
2016-05-11T05:51:41.513Z,1010.62
2016-05-11T05:52:25.482Z,1010.58
2016-05-11T05:53:25.515Z,1010.55
2016-05-11T05:55:43.851Z,1010.61
2016-05-11T05:56:43.870Z,1010.65
2016-05-11T05:57:43.904Z,1010.63
2016-05-11T05:58:43.937Z,1010.67
2016-05-11T05:59:43.956Z,1010.65
2016-05-11T06:00:43.990Z,1010.71
2016-05-11T06:02:09.695Z,1010.7
2016-05-11T06:02:53.543Z,1010.72
2016-05-11T06:03:56.733Z,1010.73
2016-05-11T06:04:56.751Z,1010.72
2016-05-11T06:06:16.003Z,1010.72
2016-05-11T06:06:59.506Z,1010.7
2016-05-11T06:07:59.525Z,1010.72
2016-05-11T06:10:09.484Z,1010.77
2016-05-11T06:12:24.754Z,1010.71
2016-05-11T06:13:24.789Z,1010.68
2016-05-11T06:16:06.046Z,1010.68
2016-05-11T06:16:40.424Z,1010.67
2016-05-11T06:19:18.023Z,1010.67
2016-05-11T06:20:02.792Z,1010.64
2016-05-11T06:20:58.449Z,1010.67
2016-05-11T06:23:19.878Z,1010.68
2016-05-11T06:24:25.396Z,1010.7
2016-05-11T06:25:19.945Z,1010.66
2016-05-11T06:26:19.917Z,1010.68
2016-05-11T06:27:19.951Z,1010.73
2016-05-11T06:28:20.016Z,1010.68
2016-05-11T06:29:20.019Z,1010.74
2016-05-11T06:30:20.053Z,1010.72
2016-05-11T06:31:20.087Z,1010.74
2016-05-11T06:32:20.136Z,1010.73
2016-05-11T06:33:20.202Z,1010.72
2016-05-11T06:34:20.189Z,1010.72
2016-05-11T06:35:32.957Z,1010.77
2016-05-11T06:36:20.257Z,1010.81
2016-05-11T06:37:20.290Z,1010.81
2016-05-11T06:38:20.325Z,1010.81
2016-05-11T06:39:20.358Z,1010.84
2016-05-11T06:40:20.392Z,1010.79
2016-05-11T06:41:20.426Z,1010.84
2016-05-11T06:42:20.460Z,1010.82
2016-05-11T06:43:20.494Z,1010.84
2016-05-11T06:44:20.543Z,1010.82
2016-05-11T06:45:20.561Z,1010.8
2016-05-11T06:46:20.597Z,1010.83
2016-05-11T06:47:20.645Z,1010.83
2016-05-11T06:48:20.680Z,1010.81
2016-05-11T06:49:20.697Z,1010.81
2016-05-11T06:50:20.732Z,1010.83
2016-05-11T06:51:20.766Z,1010.82
2016-05-11T06:52:20.815Z,1010.83
2016-05-11T06:53:20.849Z,1010.87
2016-05-11T06:54:20.868Z,1010.88
2016-05-11T06:55:20.916Z,1010.85
2016-05-11T06:56:20.951Z,1010.87
2016-05-11T06:57:20.985Z,1010.84
2016-05-11T06:58:21.034Z,1010.8
2016-05-11T06:59:33.787Z,1010.81
2016-05-11T07:00:21.087Z,1010.82
2016-05-11T07:01:21.121Z,1010.86
2016-05-11T07:02:24.358Z,1010.82
2016-05-11T07:03:24.391Z,1010.85
2016-05-11T07:04:24.410Z,1010.8
2016-05-11T07:05:24.444Z,1010.81
2016-05-11T07:06:24.478Z,1010.87
2016-05-11T07:07:43.717Z,1010.85
2016-05-11T07:08:27.639Z,1010.81
2016-05-11T07:09:27.689Z,1010.86
2016-05-11T07:10:27.723Z,1010.83
2016-05-11T07:11:46.962Z,1010.86
2016-05-11T07:12:31.181Z,1010.84
2016-05-11T07:13:31.277Z,1010.84
2016-05-11T07:14:31.265Z,1010.85
2016-05-11T07:15:31.299Z,1010.87
2016-05-11T07:16:31.317Z,1010.89
2016-05-11T07:17:31.366Z,1010.9
2016-05-11T07:18:31.400Z,1010.91
2016-05-11T07:19:31.435Z,1010.9
2016-05-11T07:20:31.468Z,1010.86
2016-05-11T07:21:31.502Z,1010.78
2016-05-11T07:22:31.536Z,1010.82
2016-05-11T07:23:31.570Z,1010.86
2016-05-11T07:24:31.619Z,1010.82
2016-05-11T07:25:31.654Z,1010.88
2016-05-11T07:26:31.703Z,1010.86
2016-05-11T07:27:31.707Z,1010.87
2016-05-11T07:28:31.756Z,1010.85
2016-05-11T07:29:31.790Z,1010.86
2016-05-11T07:30:31.823Z,1010.88
2016-05-11T07:31:31.857Z,1010.88
2016-05-11T07:32:31.907Z,1010.91
2016-05-11T07:33:31.925Z,1010.91
2016-05-11T07:34:31.975Z,1010.91
2016-05-11T07:35:31.993Z,1010.94
2016-05-11T07:36:32.043Z,1010.96
2016-05-11T07:37:44.814Z,1010.94
2016-05-11T07:38:32.111Z,1010.98
2016-05-11T07:39:32.145Z,1011.02
2016-05-11T07:40:32.179Z,1011.02
2016-05-11T07:41:32.212Z,1011.03
2016-05-11T07:42:32.247Z,1010.96
2016-05-11T07:43:45.017Z,1010.98
2016-05-11T07:44:35.361Z,1010.99
2016-05-11T07:45:32.395Z,1010.97
2016-05-11T07:46:32.398Z,1010.96
2016-05-11T07:47:32.432Z,1011
2016-05-11T07:48:33.966Z,1011.02
2016-05-11T07:49:32.625Z,1011.03
2016-05-11T07:50:47.880Z,1010.99
2016-05-11T07:51:47.913Z,1010.97
2016-05-11T07:52:54.213Z,1010.99
2016-05-11T07:53:47.983Z,1011
2016-05-11T07:54:48.032Z,1010.96
2016-05-11T07:55:48.050Z,1010.98
2016-05-11T07:56:48.083Z,1010.96
2016-05-11T07:57:48.132Z,1010.81
2016-05-11T07:58:48.152Z,1010.84
2016-05-11T07:59:48.202Z,1010.8
2016-05-11T08:00:48.235Z,1010.75
2016-05-11T08:02:01.004Z,1010.7
2016-05-11T08:02:48.303Z,1010.7
2016-05-11T08:04:14.009Z,1010.68
2016-05-11T08:04:58.043Z,1010.66
2016-05-11T08:05:58.062Z,1010.63
2016-05-11T08:06:58.095Z,1010.59
2016-05-11T08:07:58.145Z,1010.61
2016-05-11T08:08:58.162Z,1010.53
2016-05-11T08:09:58.212Z,1010.53
2016-05-11T08:10:58.231Z,1010.5
2016-05-11T08:11:58.265Z,1010.47
2016-05-11T08:13:11.033Z,1010.46
2016-05-11T08:13:58.317Z,1010.46
2016-05-11T08:14:58.367Z,1010.44
2016-05-11T08:16:01.963Z,1010.41
2016-05-11T08:17:01.997Z,1010.42
2016-05-11T08:18:02.015Z,1010.37
2016-05-11T08:19:02.049Z,1010.42
2016-05-11T08:20:02.083Z,1010.39
2016-05-11T08:21:02.117Z,1010.39
2016-05-11T08:22:02.135Z,1010.4
2016-05-11T08:23:02.169Z,1010.39
2016-05-11T08:24:02.203Z,1010.39
2016-05-11T08:25:02.238Z,1010.38
2016-05-11T08:26:02.255Z,1010.36
2016-05-11T08:27:02.289Z,1010.39
2016-05-11T08:28:02.308Z,1010.44
2016-05-11T08:29:02.341Z,1010.33
2016-05-11T08:30:02.376Z,1010.34
2016-05-11T08:31:15.144Z,1010.32
2016-05-11T08:32:02.443Z,1010.34
2016-05-11T08:33:02.446Z,1010.35
2016-05-11T08:34:02.496Z,1010.29
2016-05-11T08:35:02.514Z,1010.27
2016-05-11T08:36:02.548Z,1010.38
2016-05-11T08:37:02.566Z,1010.2
2016-05-11T08:38:02.584Z,1010.14
2016-05-11T08:39:02.618Z,1010.14
2016-05-11T08:40:02.668Z,1010.12
2016-05-11T08:41:02.687Z,1010.16
2016-05-11T08:42:02.720Z,1010.09
2016-05-11T08:43:02.739Z,1010.16
2016-05-11T08:44:02.773Z,1010.15
2016-05-11T08:45:02.791Z,1010.12
2016-05-11T08:46:02.856Z,1010.19
2016-05-11T08:47:02.859Z,1010.14
2016-05-11T08:48:02.892Z,1010.07
2016-05-11T08:49:02.912Z,1010.11
2016-05-11T08:50:02.945Z,1010.09
2016-05-11T08:51:02.994Z,1010.04
2016-05-11T08:52:02.997Z,1010.07
2016-05-11T08:53:03.031Z,1010.09
2016-05-11T08:54:03.065Z,1010.05
2016-05-11T08:55:03.083Z,1010.04
2016-05-11T08:56:03.102Z,1010.03
2016-05-11T08:57:03.136Z,1010.04
2016-05-11T08:58:03.169Z,1010.06
2016-05-11T08:59:03.188Z,1009.99
2016-05-11T09:00:03.222Z,1010.05
2016-05-11T09:01:03.255Z,1010.02
2016-05-11T09:02:03.352Z,1010.01
2016-05-11T09:03:03.324Z,1010
2016-05-11T09:04:03.327Z,1010
2016-05-11T09:05:03.360Z,1009.95
2016-05-11T09:06:03.393Z,1009.91
2016-05-11T09:07:03.413Z,1009.97
2016-05-11T09:08:03.446Z,1009.97
2016-05-11T09:09:03.495Z,1010.02
2016-05-11T09:10:03.499Z,1010.02
2016-05-11T09:11:03.532Z,1010.03
2016-05-11T09:12:03.551Z,1010.16
2016-05-11T09:13:03.585Z,1009.9
2016-05-11T09:14:03.619Z,1009.88
2016-05-11T09:15:03.637Z,1009.97
2016-05-11T09:16:03.686Z,1009.88
2016-05-11T09:17:03.705Z,1009.85
2016-05-11T09:18:03.739Z,1009.9
2016-05-11T09:19:13.241Z,1009.84
2016-05-11T09:20:13.276Z,1009.82
2016-05-11T09:21:13.309Z,1009.87
2016-05-11T09:22:13.328Z,1009.81
2016-05-11T09:23:26.097Z,1009.85
2016-05-11T09:24:13.380Z,1009.77
2016-05-11T09:25:13.414Z,1009.81
2016-05-11T09:26:22.745Z,1009.76
2016-05-11T09:27:22.779Z,1009.76
2016-05-11T09:28:35.547Z,1009.81
2016-05-11T09:29:24.253Z,1009.92
2016-05-11T09:30:48.540Z,1009.78
2016-05-11T09:31:33.290Z,1009.76
2016-05-11T09:32:33.324Z,1009.77
2016-05-11T09:33:44.388Z,1009.81
2016-05-11T09:34:44.423Z,1009.71
2016-05-11T09:35:47.474Z,1009.76
2016-05-11T09:36:44.474Z,1009.76
2016-05-11T09:37:50.761Z,1009.77
2016-05-11T09:39:10.202Z,1009.71
2016-05-11T09:40:19.611Z,1009.84
2016-05-11T09:41:06.910Z,1009.81
2016-05-11T09:42:06.929Z,1009.74
2016-05-11T09:43:06.962Z,1009.73
2016-05-11T09:44:26.200Z,1009.68
2016-05-11T09:46:29.533Z,1009.68
2016-05-11T09:47:10.348Z,1009.71
2016-05-11T09:48:10.382Z,1009.66
2016-05-11T09:49:13.447Z,1009.7
2016-05-11T09:50:10.434Z,1009.64
2016-05-11T09:51:10.469Z,1009.72
2016-05-11T09:52:23.237Z,1009.69
2016-05-11T09:53:36.192Z,1009.59
2016-05-11T09:54:36.227Z,1009.68
2016-05-11T09:55:10.635Z,1009.63
2016-05-11T09:56:23.341Z,1009.61
2016-05-11T09:57:10.641Z,1009.6
2016-05-11T09:58:10.659Z,1009.61
2016-05-11T09:59:10.693Z,1009.56
2016-05-11T10:00:10.727Z,1009.53
2016-05-11T10:01:36.432Z,1009.58
2016-05-11T10:02:20.404Z,1009.58
2016-05-11T10:03:20.422Z,1009.53
2016-05-11T10:04:20.456Z,1009.5
2016-05-11T10:05:26.757Z,1009.57
2016-05-11T10:06:20.509Z,1009.48
2016-05-11T10:07:38.652Z,1009.51
2016-05-11T10:08:38.671Z,1009.52
2016-05-11T10:10:53.804Z,1009.48
2016-05-11T10:11:53.837Z,1009.52
2016-05-11T10:14:34.656Z,1009.49
2016-05-11T10:15:34.673Z,1009.47
2016-05-11T10:16:47.442Z,1009.46
2016-05-11T10:17:34.726Z,1009.36
2016-05-11T10:19:00.451Z,1009.41
2016-05-11T10:19:44.466Z,1009.39
2016-05-11T10:21:03.706Z,1009.36
2016-05-11T10:23:28.272Z,1009.49
2016-05-11T10:24:15.573Z,1009.43
2016-05-11T10:26:30.891Z,1009.32
2016-05-11T10:27:30.925Z,1009.32
2016-05-11T10:28:56.633Z,1009.31
2016-05-11T10:30:05.980Z,1009.32
2016-05-11T10:30:49.826Z,1009.4
2016-05-11T10:32:44.814Z,1009.34
2016-05-11T10:35:19.383Z,1009.27
2016-05-11T10:36:00.216Z,1009.29
2016-05-11T10:37:25.920Z,1009.31
2016-05-11T10:41:27.322Z,1009.32
2016-05-11T10:42:36.810Z,1009.31
2016-05-11T10:43:46.421Z,1009.22
2016-05-11T10:44:56.064Z,1009.26
2016-05-11T10:46:05.507Z,1009.24
2016-05-11T10:47:08.759Z,1009.24
2016-05-11T10:48:18.262Z,1009.33
2016-05-11T10:49:27.875Z,1009.29
2016-05-11T10:50:37.331Z,1009.3
2016-05-11T10:51:40.364Z,1009.27
2016-05-11T10:52:49.851Z,1009.45
2016-05-11T10:53:59.623Z,1009.32
2016-05-11T10:55:09.375Z,1009.33
2016-05-11T10:56:19.019Z,1009.29
2016-05-11T10:57:28.739Z,1009.29
2016-05-11T10:58:38.430Z,1009.24
2016-05-11T10:59:48.292Z,1009.21
2016-05-11T11:00:57.907Z,1009.3
2016-05-11T11:02:07.769Z,1009.23
2016-05-11T11:03:17.428Z,1009.25
2016-05-11T11:04:26.884Z,1009.21
2016-05-11T11:07:07.830Z,1009.32
2016-05-11T11:07:42.174Z,1009.24
2016-05-11T11:09:57.444Z,1009.26
2016-05-11T11:10:57.528Z,1009.26
2016-05-11T11:12:23.171Z,1009.23
2016-05-11T11:13:07.126Z,1009.2
2016-05-11T11:14:30.896Z,1009.34
2016-05-11T11:15:29.491Z,1009.24
2016-05-11T11:16:29.525Z,1009.27
2016-05-11T11:17:48.746Z,1009.26
2016-05-11T11:18:48.797Z,1009.33
2016-05-11T11:19:29.612Z,1009.19
2016-05-11T11:20:55.317Z,1009.19
2016-05-11T11:22:54.073Z,1009.24
2016-05-11T11:23:54.092Z,1009.23
2016-05-11T11:26:34.943Z,1009.2
2016-05-11T11:27:09.289Z,1009.21
2016-05-11T11:29:50.233Z,1009.17
2016-05-11T11:30:24.578Z,1009.16
2016-05-11T11:31:24.613Z,1009.19
2016-05-11T11:32:37.303Z,1009.14
2016-05-11T11:33:37.322Z,1009.1
2016-05-11T11:34:37.339Z,1009.14
2016-05-11T11:35:50.108Z,1009.12
2016-05-11T11:36:50.141Z,1009.15
2016-05-11T11:38:03.132Z,1009.14
2016-05-11T11:38:56.678Z,1009.08
2016-05-11T11:41:18.515Z,1009.09
2016-05-11T11:42:18.564Z,1009.11
2016-05-11T11:43:31.191Z,1009.09
2016-05-11T11:45:34.432Z,1009.08
2016-05-11T11:46:34.466Z,1009.1
2016-05-11T11:47:49.687Z,1009.22
2016-05-11T11:48:49.737Z,1009.07
2016-05-11T11:49:49.755Z,1009.2
2016-05-11T11:50:51.210Z,1009.13
2016-05-11T11:52:02.545Z,1009.21
2016-05-11T11:53:02.578Z,1009.15
2016-05-11T11:53:49.890Z,1009.14
2016-05-11T11:54:49.909Z,1009.08
2016-05-11T11:57:28.354Z,1009.09
2016-05-11T11:58:28.388Z,1009.05
2016-05-11T11:59:40.923Z,1009.08
2016-05-11T12:00:41.004Z,1009.03
2016-05-11T12:01:56.897Z,1009.04
2016-05-11T12:02:56.914Z,1009.07
2016-05-11T12:03:56.995Z,1008.99
2016-05-11T12:05:06.657Z,1009.03
2016-05-11T12:06:06.691Z,1009.02
2016-05-11T12:07:06.710Z,1009.03
2016-05-11T12:08:25.166Z,1009.09
2016-05-11T12:09:25.199Z,1009.01
2016-05-11T12:10:28.358Z,1008.95
2016-05-11T12:11:54.064Z,1008.98
2016-05-11T12:13:09.319Z,1009.01
2016-05-11T12:14:22.088Z,1009.06
2016-05-11T12:15:09.371Z,1009.11
2016-05-11T12:16:35.077Z,1009.11
2016-05-11T12:17:41.315Z,1009.1
2016-05-11T12:18:25.129Z,1009.08
2016-05-11T12:19:34.757Z,1009.1
2016-05-11T12:20:34.776Z,1009.07
2016-05-11T12:21:47.544Z,1009.21
2016-05-11T12:22:34.843Z,1009.08
2016-05-11T12:24:49.802Z,1009.11
2016-05-11T12:26:15.511Z,1009.12
2016-05-11T12:27:26.389Z,1009.05
2016-05-11T12:28:26.407Z,1009
2016-05-11T12:29:26.440Z,1009
2016-05-11T12:30:27.897Z,1009.01
2016-05-11T12:31:43.149Z,1009
2016-05-11T12:32:43.183Z,1009.05
2016-05-11T12:33:43.201Z,1009.1
2016-05-11T12:34:56.016Z,1009.08
2016-05-11T12:35:56.003Z,1008.99
2016-05-11T12:37:08.987Z,1008.93
2016-05-11T12:38:12.178Z,1009.01
2016-05-11T12:39:12.259Z,1008.99
2016-05-11T12:40:56.137Z,1009.07
2016-05-11T12:41:56.219Z,1008.99
2016-05-11T12:42:56.267Z,1008.96
2016-05-11T12:44:05.775Z,1009.07
2016-05-11T12:46:46.940Z,1009.04
2016-05-11T12:47:46.969Z,1008.94
2016-05-11T12:48:46.993Z,1008.88
2016-05-11T12:50:02.371Z,1008.95
2016-05-11T12:51:02.614Z,1008.9
2016-05-11T12:53:18.031Z,1008.86
2016-05-11T12:54:18.051Z,1008.87
2016-05-11T12:56:59.014Z,1008.83
2016-05-11T12:57:33.376Z,1008.83
2016-05-11T12:59:48.525Z,1008.82
2016-05-11T13:00:48.920Z,1008.8
2016-05-11T13:03:06.851Z,1008.77
2016-05-11T13:04:06.869Z,1008.73
2016-05-11T13:06:21.985Z,1008.78
2016-05-11T13:07:22.019Z,1008.78
2016-05-11T13:10:02.964Z,1008.75
2016-05-11T13:10:37.292Z,1008.71
2016-05-11T13:13:18.144Z,1008.73
2016-05-11T13:13:52.488Z,1008.73
2016-05-11T13:16:09.058Z,1008.7
2016-05-11T13:17:09.093Z,1008.7
2016-05-11T13:18:09.126Z,1008.73
2016-05-11T13:19:18.848Z,1008.7
2016-05-11T13:20:18.882Z,1008.71
2016-05-11T13:21:28.493Z,1008.71
2016-05-11T13:22:28.513Z,1008.69
2016-05-11T13:23:28.562Z,1008.72
2016-05-11T13:24:28.579Z,1008.69
2016-05-11T13:25:47.818Z,1008.82